Arkansas Post National Memor, Arkansas
Current Conditions -  °F | °C
As of 11:53 AM on Thursday 29 Jan 2015 (Local Time) from KPBF Reporting Station
Clear Clear  
Wind Chill: 18°   Ceiling: Unl
Heat Index: 18°   Visibility: 10mi
Dew Point:   Wind: 13mph
Humidity: 47%   Direction: 310°NW
Pressure: 30.15"   Gusts: NA
Location:  34.1564°N, 91.3915°W
Report Text: KPBF 291753Z AUTO 31011KT 10SM CLR 18/07 A3015 RMK AO2 SLP208 T01830067 10189 20117 51012
Loading
Personal Weather Stations






























Interactive Weather Map New forecast layout! Learn more

10-Day Weather Forecast

Advertisements
Track Severe Weather on mobile